sensor_id;sensor_type;location;lat;lon;timestamp;pressure;altitude;pressure_sealevel;temperature;humidity
71974;BME280;59840;52.122;5.404;2023-05-09T00:02:05;101904.31;;;13.79;100.00
71974;BME280;59840;52.122;5.404;2023-05-09T00:04:33;101900.63;;;13.80;100.00
71974;BME280;59840;52.122;5.404;2023-05-09T00:07:00;101895.31;;;13.80;100.00
71974;BME280;59840;52.122;5.404;2023-05-09T00:09:27;101896.34;;;13.79;100.00
71974;BME280;59840;52.122;5.404;2023-05-09T00:11:53;101891.75;;;13.74;100.00
71974;BME280;59840;52.122;5.404;2023-05-09T00:14:20;101891.53;;;13.76;100.00
71974;BME280;59840;52.122;5.404;2023-05-09T00:16:47;101886.78;;;13.78;100.00
71974;BME280;59840;52.122;5.404;2023-05-09T00:19:13;101897.16;;;13.80;100.00
71974;BME280;59840;52.122;5.404;2023-05-09T00:21:40;101892.91;;;13.79;100.00
71974;BME280;59840;52.122;5.404;2023-05-09T00:24:06;101892.09;;;13.78;100.00
71974;BME280;59840;52.122;5.404;2023-05-09T00:26:33;101890.00;;;13.80;100.00
71974;BME280;59840;52.122;5.404;2023-05-09T00:28:59;101890.00;;;13.80;100.00
71974;BME280;59840;52.122;5.404;2023-05-09T00:31:26;101883.91;;;13.80;100.00
71974;BME280;59840;52.122;5.404;2023-05-09T00:33:53;101893.69;;;13.79;100.00
71974;BME280;59840;52.122;5.404;2023-05-09T00:36:19;101891.28;;;13.78;100.00
71974;BME280;59840;52.122;5.404;2023-05-09T00:38:46;101889.44;;;13.78;100.00
71974;BME280;59840;52.122;5.404;2023-05-09T00:41:13;101885.75;;;13.79;100.00
71974;BME280;59840;52.122;5.404;2023-05-09T00:43:39;101878.50;;;13.74;100.00
71974;BME280;59840;52.122;5.404;2023-05-09T00:46:06;101882.00;;;13.63;100.00
71974;BME280;59840;52.122;5.404;2023-05-09T00:48:33;101876.13;;;13.61;100.00
71974;BME280;59840;52.122;5.404;2023-05-09T00:51:00;101871.41;;;13.63;100.00
71974;BME280;59840;52.122;5.404;2023-05-09T00:53:27;101869.78;;;13.62;100.00
71974;BME280;59840;52.122;5.404;2023-05-09T00:55:54;101877.28;;;13.65;100.00
71974;BME280;59840;52.122;5.404;2023-05-09T00:58:22;101874.94;;;13.69;100.00
71974;BME280;59840;52.122;5.404;2023-05-09T01:00:49;101868.69;;;13.75;100.00
71974;BME280;59840;52.122;5.404;2023-05-09T01:03:16;101863.16;;;13.77;100.00
71974;BME280;59840;52.122;5.404;2023-05-09T01:05:54;101870.63;;;13.80;100.00
71974;BME280;59840;52.122;5.404;2023-05-09T01:08:43;101861.38;;;13.82;100.00
71974;BME280;59840;52.122;5.404;2023-05-09T01:11:15;101846.53;;;13.81;100.00
71974;BME280;59840;52.122;5.404;2023-05-09T01:16:55;101841.13;;;13.76;100.00
71974;BME280;59840;52.122;5.404;2023-05-09T01:21:56;101826.81;;;13.77;100.00
71974;BME280;59840;52.122;5.404;2023-05-09T01:27:41;101824.16;;;13.77;100.00
71974;BME280;59840;52.122;5.404;2023-05-09T01:30:15;101822.56;;;13.76;100.00
71974;BME280;59840;52.122;5.404;2023-05-09T01:32:42;101809.28;;;13.76;100.00
71974;BME280;59840;52.122;5.404;2023-05-09T01:35:12;101817.50;;;13.74;100.00
71974;BME280;59840;52.122;5.404;2023-05-09T01:37:41;101813.94;;;13.69;100.00
71974;BME280;59840;52.122;5.404;2023-05-09T01:40:19;101817.31;;;13.64;100.00
71974;BME280;59840;52.122;5.404;2023-05-09T01:42:53;101818.03;;;13.60;100.00
71974;BME280;59840;52.122;5.404;2023-05-09T01:45:23;101815.06;;;13.56;100.00
71974;BME280;59840;52.122;5.404;2023-05-09T01:47:50;101815.84;;;13.57;100.00
71974;BME280;59840;52.122;5.404;2023-05-09T01:50:18;101803.97;;;13.59;100.00
71974;BME280;59840;52.122;5.404;2023-05-09T01:52:47;101806.06;;;13.57;100.00
71974;BME280;59840;52.122;5.404;2023-05-09T01:55:15;101808.94;;;13.56;100.00
71974;BME280;59840;52.122;5.404;2023-05-09T01:57:43;101809.19;;;13.54;100.00
71974;BME280;59840;52.122;5.404;2023-05-09T02:00:11;101803.88;;;13.54;100.00
71974;BME280;59840;52.122;5.404;2023-05-09T02:02:39;101801.47;;;13.53;100.00
71974;BME280;59840;52.122;5.404;2023-05-09T02:05:08;101795.63;;;13.51;100.00
71974;BME280;59840;52.122;5.404;2023-05-09T02:07:35;101801.41;;;13.48;100.00
71974;BME280;59840;52.122;5.404;2023-05-09T02:10:02;101797.38;;;13.45;100.00
71974;BME280;59840;52.122;5.404;2023-05-09T02:12:30;101790.72;;;13.43;100.00
71974;BME280;59840;52.122;5.404;2023-05-09T02:14:56;101787.25;;;13.42;100.00
71974;BME280;59840;52.122;5.404;2023-05-09T02:17:23;101793.03;;;13.39;100.00
71974;BME280;59840;52.122;5.404;2023-05-09T02:19:50;101791.19;;;13.39;100.00
71974;BME280;59840;52.122;5.404;2023-05-09T02:22:16;101793.38;;;13.43;100.00
71974;BME280;59840;52.122;5.404;2023-05-09T02:24:43;101780.69;;;13.45;100.00
71974;BME280;59840;52.122;5.404;2023-05-09T02:27:13;101776.66;;;13.42;100.00
71974;BME280;59840;52.122;5.404;2023-05-09T02:29:44;101771.03;;;13.38;100.00
71974;BME280;59840;52.122;5.404;2023-05-09T02:32:21;101775.19;;;13.34;100.00
71974;BME280;59840;52.122;5.404;2023-05-09T02:34:49;101779.38;;;13.30;100.00
71974;BME280;59840;52.122;5.404;2023-05-09T02:37:17;101775.34;;;13.28;100.00
71974;BME280;59840;52.122;5.404;2023-05-09T02:39:44;101775.59;;;13.26;100.00
71974;BME280;59840;52.122;5.404;2023-05-09T02:42:14;101767.88;;;13.25;100.00
71974;BME280;59840;52.122;5.404;2023-05-09T02:44:41;101772.38;;;13.24;100.00
71974;BME280;59840;52.122;5.404;2023-05-09T02:47:07;101776.06;;;13.23;100.00
71974;BME280;59840;52.122;5.404;2023-05-09T02:49:34;101776.88;;;13.24;100.00
71974;BME280;59840;52.122;5.404;2023-05-09T02:52:00;101777.09;;;13.22;100.00
71974;BME280;59840;52.122;5.404;2023-05-09T02:54:27;101768.91;;;13.24;100.00
71974;BME280;59840;52.122;5.404;2023-05-09T02:56:54;101763.03;;;13.22;100.00
71974;BME280;59840;52.122;5.404;2023-05-09T02:59:20;101761.66;;;13.19;100.00
71974;BME280;59840;52.122;5.404;2023-05-09T03:01:47;101760.63;;;13.20;100.00
71974;BME280;59840;52.122;5.404;2023-05-09T03:04:13;101760.88;;;13.19;100.00
71974;BME280;59840;52.122;5.404;2023-05-09T03:06:40;101754.75;;;13.18;100.00
71974;BME280;59840;52.122;5.404;2023-05-09T03:09:07;101754.66;;;13.13;100.00
71974;BME280;59840;52.122;5.404;2023-05-09T03:11:34;101745.34;;;13.11;100.00
71974;BME280;59840;52.122;5.404;2023-05-09T03:14:02;101747.19;;;13.10;100.00
71974;BME280;59840;52.122;5.404;2023-05-09T03:16:29;101739.16;;;13.05;100.00
71974;BME280;59840;52.122;5.404;2023-05-09T03:18:56;101742.03;;;13.03;100.00
71974;BME280;59840;52.122;5.404;2023-05-09T03:21:22;101732.25;;;13.04;100.00
71974;BME280;59840;52.122;5.404;2023-05-09T03:23:49;101736.50;;;13.05;100.00
71974;BME280;59840;52.122;5.404;2023-05-09T03:26:15;101731.78;;;13.07;100.00
71974;BME280;59840;52.122;5.404;2023-05-09T03:28:42;101725.19;;;13.09;100.00
71974;BME280;59840;52.122;5.404;2023-05-09T03:31:08;101719.66;;;13.11;100.00
71974;BME280;59840;52.122;5.404;2023-05-09T03:33:35;101715.97;;;13.12;100.00
71974;BME280;59840;52.122;5.404;2023-05-09T03:36:02;101716.53;;;13.14;100.00
71974;BME280;59840;52.122;5.404;2023-05-09T03:38:28;101716.53;;;13.14;100.00
71974;BME280;59840;52.122;5.404;2023-05-09T03:40:55;101711.22;;;13.14;100.00
71974;BME280;59840;52.122;5.404;2023-05-09T03:43:21;101708.09;;;13.17;100.00
71974;BME280;59840;52.122;5.404;2023-05-09T03:45:48;101702.88;;;13.22;100.00
71974;BME280;59840;52.122;5.404;2023-05-09T03:48:14;101693.66;;;13.25;100.00
71974;BME280;59840;52.122;5.404;2023-05-09T03:50:41;101693.66;;;13.25;100.00
71974;BME280;59840;52.122;5.404;2023-05-09T03:53:08;101688.13;;;13.26;100.00
71974;BME280;59840;52.122;5.404;2023-05-09T03:55:35;101690.53;;;13.28;100.00
71974;BME280;59840;52.122;5.404;2023-05-09T03:58:02;101686.50;;;13.25;100.00
71974;BME280;59840;52.122;5.404;2023-05-09T04:00:28;101685.47;;;13.26;100.00
71974;BME280;59840;52.122;5.404;2023-05-09T04:02:55;101678.56;;;13.25;100.00
71974;BME280;59840;52.122;5.404;2023-05-09T04:05:22;101670.38;;;13.27;100.00
71974;BME280;59840;52.122;5.404;2023-05-09T04:07:48;101661.63;;;13.26;100.00
71974;BME280;59840;52.122;5.404;2023-05-09T04:10:15;101675.91;;;13.25;100.00
71974;BME280;59840;52.122;5.404;2023-05-09T04:12:41;101685.72;;;13.25;100.00
71974;BME280;59840;52.122;5.404;2023-05-09T04:15:08;101678.56;;;13.25;100.00
71974;BME280;59840;52.122;5.404;2023-05-09T04:17:35;101674.88;;;13.26;100.00
71974;BME280;59840;52.122;5.404;2023-05-09T04:20:02;101680.72;;;13.28;100.00
71974;BME280;59840;52.122;5.404;2023-05-09T04:22:29;101677.84;;;13.30;100.00
71974;BME280;59840;52.122;5.404;2023-05-09T04:24:55;101677.59;;;13.31;100.00
71974;BME280;59840;52.122;5.404;2023-05-09T04:27:22;101675.50;;;13.33;100.00
71974;BME280;59840;52.122;5.404;2023-05-09T04:29:49;101680.81;;;13.33;100.00
71974;BME280;59840;52.122;5.404;2023-05-09T04:32:15;101674.47;;;13.34;100.00
71974;BME280;59840;52.122;5.404;2023-05-09T04:34:42;101682.97;;;13.36;100.00
71974;BME280;59840;52.122;5.404;2023-05-09T04:37:09;101664.44;;;13.36;100.00
71974;BME280;59840;52.122;5.404;2023-05-09T04:39:36;101668.69;;;13.37;100.00
71974;BME280;59840;52.122;5.404;2023-05-09T04:42:03;101662.91;;;13.40;100.00
71974;BME280;59840;52.122;5.404;2023-05-09T04:44:29;101664.28;;;13.43;100.00
71974;BME280;59840;52.122;5.404;2023-05-09T04:46:56;101657.13;;;13.44;100.00
71974;BME280;59840;52.122;5.404;2023-05-09T04:49:23;101654.47;;;13.44;100.00
71974;BME280;59840;52.122;5.404;2023-05-09T04:51:50;101654.22;;;13.45;100.00
71974;BME280;59840;52.122;5.404;2023-05-09T04:54:16;101648.69;;;13.47;100.00
71974;BME280;59840;52.122;5.404;2023-05-09T04:56:43;101640.16;;;13.45;100.00
71974;BME280;59840;52.122;5.404;2023-05-09T04:59:10;101635.91;;;13.44;100.00
71974;BME280;59840;52.122;5.404;2023-05-09T05:01:36;101635.44;;;13.47;100.00
71974;BME280;59840;52.122;5.404;2023-05-09T05:04:03;101643.94;;;13.49;100.00
71974;BME280;59840;52.122;5.404;2023-05-09T05:06:30;101638.41;;;13.50;100.00
71974;BME280;59840;52.122;5.404;2023-05-09T05:08:57;101639.72;;;13.53;100.00
71974;BME280;59840;52.122;5.404;2023-05-09T05:11:23;101631.78;;;13.53;100.00
71974;BME280;59840;52.122;5.404;2023-05-09T05:13:50;101628.63;;;13.56;100.00
71974;BME280;59840;52.122;5.404;2023-05-09T05:16:16;101630.31;;;13.62;100.00
71974;BME280;59840;52.122;5.404;2023-05-09T05:18:43;101616.56;;;13.65;100.00
71974;BME280;59840;52.122;5.404;2023-05-09T05:21:09;101609.97;;;13.67;100.00
71974;BME280;59840;52.122;5.404;2023-05-09T05:23:36;101607.88;;;13.69;100.00
71974;BME280;59840;52.122;5.404;2023-05-09T05:26:03;101612.69;;;13.72;100.00
71974;BME280;59840;52.122;5.404;2023-05-09T05:28:29;101605.84;;;13.77;100.00
71974;BME280;59840;52.122;5.404;2023-05-09T05:30:56;101592.09;;;13.80;100.00
71974;BME280;59840;52.122;5.404;2023-05-09T05:33:22;101590.81;;;13.82;100.00
71974;BME280;59840;52.122;5.404;2023-05-09T05:35:49;101596.94;;;13.88;100.00
71974;BME280;59840;52.122;5.404;2023-05-09T05:38:16;101598.88;;;13.92;100.00
71974;BME280;59840;52.122;5.404;2023-05-09T05:40:43;101593.63;;;13.97;100.00
71974;BME280;59840;52.122;5.404;2023-05-09T05:43:09;101596.34;;;14.02;100.00
71974;BME280;59840;52.122;5.404;2023-05-09T05:45:36;101586.34;;;14.09;100.00
71974;BME280;59840;52.122;5.404;2023-05-09T05:48:03;101583.75;;;14.15;100.00
71974;BME280;59840;52.122;5.404;2023-05-09T05:50:29;101584.84;;;14.19;100.00
71974;BME280;59840;52.122;5.404;2023-05-09T05:52:56;101582.78;;;14.26;100.00
71974;BME280;59840;52.122;5.404;2023-05-09T05:55:22;101575.13;;;14.29;100.00
71974;BME280;59840;52.122;5.404;2023-05-09T05:57:49;101579.44;;;14.35;100.00
71974;BME280;59840;52.122;5.404;2023-05-09T06:00:16;101580.78;;;14.38;100.00
71974;BME280;59840;52.122;5.404;2023-05-09T06:02:43;101571.50;;;14.40;100.00
71974;BME280;59840;52.122;5.404;2023-05-09T06:05:10;101575.56;;;14.43;100.00
71974;BME280;59840;52.122;5.404;2023-05-09T06:07:37;101576.09;;;14.45;100.00
71974;BME280;59840;52.122;5.404;2023-05-09T06:10:06;101575.84;;;14.47;100.00
71974;BME280;59840;52.122;5.404;2023-05-09T06:12:33;101573.44;;;14.45;100.00
71974;BME280;59840;52.122;5.404;2023-05-09T06:14:59;101570.78;;;14.45;100.00
71974;BME280;59840;52.122;5.404;2023-05-09T06:17:26;101566.53;;;14.44;100.00
71974;BME280;59840;52.122;5.404;2023-05-09T06:19:53;101558.31;;;14.46;100.00
71974;BME280;59840;52.122;5.404;2023-05-09T06:22:20;101559.91;;;14.47;100.00
71974;BME280;59840;52.122;5.404;2023-05-09T06:24:46;101558.63;;;14.49;100.00
71974;BME280;59840;52.122;5.404;2023-05-09T06:27:13;101557.81;;;14.49;100.00
71974;BME280;59840;52.122;5.404;2023-05-09T06:29:40;101547.19;;;14.49;100.00
71974;BME280;59840;52.122;5.404;2023-05-09T06:32:06;101549.06;;;14.48;100.00
71974;BME280;59840;52.122;5.404;2023-05-09T06:34:33;101544.78;;;14.47;100.00
71974;BME280;59840;52.122;5.404;2023-05-09T06:36:59;101536.28;;;14.45;100.00
71974;BME280;59840;52.122;5.404;2023-05-09T06:39:26;101533.13;;;14.48;100.00
71974;BME280;59840;52.122;5.404;2023-05-09T06:41:53;101529.41;;;14.49;100.00
71974;BME280;59840;52.122;5.404;2023-05-09T06:44:19;101523.56;;;14.47;100.00
71974;BME280;59840;52.122;5.404;2023-05-09T06:46:46;101524.66;;;14.51;100.00
71974;BME280;59840;52.122;5.404;2023-05-09T06:49:12;101524.94;;;14.55;100.00
71974;BME280;59840;52.122;5.404;2023-05-09T06:51:39;101518.03;;;14.54;100.00
71974;BME280;59840;52.122;5.404;2023-05-09T06:54:06;101519.88;;;14.53;100.00
71974;BME280;59840;52.122;5.404;2023-05-09T06:56:32;101519.63;;;14.55;100.00
71974;BME280;59840;52.122;5.404;2023-05-09T06:58:59;101515.91;;;14.56;100.00
71974;BME280;59840;52.122;5.404;2023-05-09T07:01:25;101516.19;;;14.59;100.00
71974;BME280;59840;52.122;5.404;2023-05-09T07:03:52;101512.22;;;14.62;100.00
71974;BME280;59840;52.122;5.404;2023-05-09T07:06:19;101507.72;;;14.62;100.00
71974;BME280;59840;52.122;5.404;2023-05-09T07:08:45;101509.56;;;14.62;100.00
71974;BME280;59840;52.122;5.404;2023-05-09T07:11:12;101504.81;;;14.64;100.00
71974;BME280;59840;52.122;5.404;2023-05-09T07:13:38;101509.06;;;14.65;100.00
71974;BME280;59840;52.122;5.404;2023-05-09T07:16:05;101501.38;;;14.68;100.00
71974;BME280;59840;52.122;5.404;2023-05-09T07:18:32;101504.34;;;14.72;100.00
71974;BME280;59840;52.122;5.404;2023-05-09T07:20:58;101504.09;;;14.73;100.00
71974;BME280;59840;52.122;5.404;2023-05-09T07:23:25;101490.53;;;14.75;100.00
71974;BME280;59840;52.122;5.404;2023-05-09T07:25:58;101500.13;;;14.76;100.00
71974;BME280;59840;52.122;5.404;2023-05-09T07:28:25;101494.28;;;14.79;100.00
71974;BME280;59840;52.122;5.404;2023-05-09T07:30:53;101495.66;;;14.82;100.00
71974;BME280;59840;52.122;5.404;2023-05-09T07:33:20;101497.75;;;14.80;100.00
71974;BME280;59840;52.122;5.404;2023-05-09T07:35:47;101490.28;;;14.77;100.00
71974;BME280;59840;52.122;5.404;2023-05-09T07:38:13;101493.47;;;14.73;100.00
71974;BME280;59840;52.122;5.404;2023-05-09T07:40:40;101489.50;;;14.76;100.00
71974;BME280;59840;52.122;5.404;2023-05-09T07:43:06;101491.09;;;14.77;100.00
71974;BME280;59840;52.122;5.404;2023-05-09T07:45:33;101488.97;;;14.79;100.00
71974;BME280;59840;52.122;5.404;2023-05-09T07:48:00;101488.22;;;14.84;100.00
71974;BME280;59840;52.122;5.404;2023-05-09T07:50:26;101485.84;;;14.87;100.00
71974;BME280;59840;52.122;5.404;2023-05-09T07:52:53;101482.94;;;14.89;100.00
71974;BME280;59840;52.122;5.404;2023-05-09T07:55:20;101483.44;;;14.86;100.00
71974;BME280;59840;52.122;5.404;2023-05-09T07:57:47;101480.28;;;14.89;100.00
71974;BME280;59840;52.122;5.404;2023-05-09T08:00:14;101476.28;;;14.86;100.00
71974;BME280;59840;52.122;5.404;2023-05-09T08:02:41;101466.41;;;14.82;100.00
71974;BME280;59840;52.122;5.404;2023-05-09T08:05:08;101475.75;;;14.84;100.00
71974;BME280;59840;52.122;5.404;2023-05-09T08:07:37;101460.84;;;14.83;100.00
71974;BME280;59840;52.122;5.404;2023-05-09T08:10:04;101460.56;;;14.80;100.00
71974;BME280;59840;52.122;5.404;2023-05-09T08:12:30;101463.22;;;14.80;100.00
71974;BME280;59840;52.122;5.404;2023-05-09T08:14:57;101458.16;;;14.78;100.00
71974;BME280;59840;52.122;5.404;2023-05-09T08:17:24;101453.09;;;14.77;100.00
71974;BME280;59840;52.122;5.404;2023-05-09T08:19:50;101447.28;;;14.80;100.00
71974;BME280;59840;52.122;5.404;2023-05-09T08:22:18;101447.31;;;14.85;100.00
71974;BME280;59840;52.122;5.404;2023-05-09T08:24:46;101448.41;;;14.89;100.00
71974;BME280;59840;52.122;5.404;2023-05-09T08:27:13;101439.38;;;14.90;100.00
71974;BME280;59840;52.122;5.404;2023-05-09T08:29:41;101433.25;;;14.89;100.00
71974;BME280;59840;52.122;5.404;2023-05-09T08:32:08;101428.72;;;14.85;100.00
71974;BME280;59840;52.122;5.404;2023-05-09T08:34:35;101430.56;;;14.84;100.00
71974;BME280;59840;52.122;5.404;2023-05-09T08:37:02;101432.47;;;14.89;100.00
71974;BME280;59840;52.122;5.404;2023-05-09T08:39:30;101427.41;;;14.92;100.00
71974;BME280;59840;52.122;5.404;2023-05-09T08:42:00;101425.53;;;14.93;100.00
71974;BME280;59840;52.122;5.404;2023-05-09T08:44:29;101420.22;;;14.93;100.00
71974;BME280;59840;52.122;5.404;2023-05-09T08:46:59;101420.75;;;14.85;100.00
71974;BME280;59840;52.122;5.404;2023-05-09T08:49:27;101421.28;;;14.87;100.00
71974;BME280;59840;52.122;5.404;2023-05-09T08:51:55;101422.06;;;14.82;100.00
71974;BME280;59840;52.122;5.404;2023-05-09T08:54:22;101414.31;;;14.75;100.00
71974;BME280;59840;52.122;5.404;2023-05-09T08:56:49;101416.16;;;14.75;100.00
71974;BME280;59840;52.122;5.404;2023-05-09T08:59:17;101405.78;;;14.73;100.00
71974;BME280;59840;52.122;5.404;2023-05-09T09:01:44;101400.78;;;14.77;100.00
71974;BME280;59840;52.122;5.404;2023-05-09T09:04:11;101402.66;;;14.82;100.00
71974;BME280;59840;52.122;5.404;2023-05-09T09:06:38;101401.63;;;14.88;100.00
71974;BME280;59840;52.122;5.404;2023-05-09T09:09:06;101405.34;;;14.87;100.00
71974;BME280;59840;52.122;5.404;2023-05-09T09:11:36;101404.28;;;14.88;100.00
71974;BME280;59840;52.122;5.404;2023-05-09T09:14:12;101399.22;;;14.86;100.00
71974;BME280;59840;52.122;5.404;2023-05-09T09:16:42;101391.00;;;14.88;100.00
71974;BME280;59840;52.122;5.404;2023-05-09T09:19:11;101398.16;;;14.87;100.00
71974;BME280;59840;52.122;5.404;2023-05-09T09:21:43;101392.84;;;14.87;100.00
71974;BME280;59840;52.122;5.404;2023-05-09T09:24:14;101391.00;;;14.88;100.00
71974;BME280;59840;52.122;5.404;2023-05-09T09:26:46;101390.69;;;14.79;100.00
71974;BME280;59840;52.122;5.404;2023-05-09T09:29:14;101379.53;;;14.77;100.00
71974;BME280;59840;52.122;5.404;2023-05-09T09:31:45;101381.09;;;14.73;100.00
71974;BME280;59840;52.122;5.404;2023-05-09T09:34:13;101387.97;;;14.69;100.00
71974;BME280;59840;52.122;5.404;2023-05-09T09:36:44;101383.75;;;14.73;100.00
71974;BME280;59840;52.122;5.404;2023-05-09T09:39:12;101377.91;;;14.76;100.00
71974;BME280;59840;52.122;5.404;2023-05-09T09:41:39;101375.00;;;14.78;100.00
71974;BME280;59840;52.122;5.404;2023-05-09T09:44:14;101376.88;;;14.77;100.00
71974;BME280;59840;52.122;5.404;2023-05-09T09:46:49;101383.53;;;14.80;100.00
71974;BME280;59840;52.122;5.404;2023-05-09T09:49:22;101375.03;;;14.83;100.00
71974;BME280;59840;52.122;5.404;2023-05-09T09:51:58;101369.47;;;14.84;100.00
71974;BME280;59840;52.122;5.404;2023-05-09T09:54:25;101370.81;;;14.87;100.00
71974;BME280;59840;52.122;5.404;2023-05-09T09:56:53;101370.22;;;14.80;100.00
71974;BME280;59840;52.122;5.404;2023-05-09T09:59:23;101372.88;;;14.74;100.00
71974;BME280;59840;52.122;5.404;2023-05-09T10:02:04;101367.00;;;14.72;100.00
71974;BME280;59840;52.122;5.404;2023-05-09T10:04:35;101368.03;;;14.66;100.00
71974;BME280;59840;52.122;5.404;2023-05-09T10:07:04;101369.31;;;14.59;100.00
71974;BME280;59840;52.122;5.404;2023-05-09T10:09:32;101367.19;;;14.56;100.00
71974;BME280;59840;52.122;5.404;2023-05-09T10:12:04;101362.16;;;14.59;100.00
71974;BME280;59840;52.122;5.404;2023-05-09T10:14:33;101361.63;;;14.62;100.00
71974;BME280;59840;52.122;5.404;2023-05-09T10:17:02;101363.25;;;14.63;100.00
71974;BME280;59840;52.122;5.404;2023-05-09T10:19:30;101362.78;;;14.77;100.00
71974;BME280;59840;52.122;5.404;2023-05-09T10:22:01;101354.31;;;14.85;100.00
71974;BME280;59840;52.122;5.404;2023-05-09T10:27:09;101353.25;;;14.91;100.00
71974;BME280;59840;52.122;5.404;2023-05-09T10:29:48;101348.22;;;14.84;100.00
71974;BME280;59840;52.122;5.404;2023-05-09T10:32:20;101349.53;;;14.87;100.00
71974;BME280;59840;52.122;5.404;2023-05-09T10:34:52;101346.88;;;14.87;100.00
71974;BME280;59840;52.122;5.404;2023-05-09T10:37:20;101346.34;;;14.85;100.00
71974;BME280;59840;52.122;5.404;2023-05-09T10:39:47;101343.41;;;14.81;100.00
71974;BME280;59840;52.122;5.404;2023-05-09T10:42:18;101341.53;;;14.77;100.00
71974;BME280;59840;52.122;5.404;2023-05-09T10:44:45;101336.72;;;14.73;100.00
71974;BME280;59840;52.122;5.404;2023-05-09T10:47:13;101333.53;;;14.71;100.00
71974;BME280;59840;52.122;5.404;2023-05-09T10:49:42;101325.03;;;14.74;100.00
71974;BME280;59840;52.122;5.404;2023-05-09T10:52:09;101320.81;;;14.79;100.00
71974;BME280;59840;52.122;5.404;2023-05-09T10:54:36;101314.72;;;14.83;100.00
71974;BME280;59840;52.122;5.404;2023-05-09T10:57:04;101321.38;;;14.91;100.00
71974;BME280;59840;52.122;5.404;2023-05-09T10:59:42;101311.53;;;14.91;100.00
71974;BME280;59840;52.122;5.404;2023-05-09T11:02:13;101311.81;;;14.85;100.00
71974;BME280;59840;52.122;5.404;2023-05-09T11:04:40;101302.50;;;14.82;100.00
71974;BME280;59840;52.122;5.404;2023-05-09T11:07:24;101305.97;;;14.83;100.00
71974;BME280;59840;52.122;5.404;2023-05-09T11:09:52;101308.84;;;14.76;100.00
71974;BME280;59840;52.122;5.404;2023-05-09T11:12:32;101298.75;;;14.73;100.00
71974;BME280;59840;52.122;5.404;2023-05-09T11:15:06;101298.47;;;14.74;100.00
71974;BME280;59840;52.122;5.404;2023-05-09T11:17:37;101295.84;;;14.80;100.00
71974;BME280;59840;52.122;5.404;2023-05-09T11:20:04;101288.69;;;14.85;100.00
71974;BME280;59840;52.122;5.404;2023-05-09T11:22:42;101287.13;;;14.89;100.00
71974;BME280;59840;52.122;5.404;2023-05-09T11:25:13;101286.03;;;14.90;100.00
71974;BME280;59840;52.122;5.404;2023-05-09T11:27:49;101283.38;;;14.90;100.00
71974;BME280;59840;52.122;5.404;2023-05-09T11:30:19;101281.00;;;14.84;100.00
71974;BME280;59840;52.122;5.404;2023-05-09T11:32:49;101271.41;;;14.83;100.00
71974;BME280;59840;52.122;5.404;2023-05-09T11:35:20;101271.69;;;14.86;100.00
71974;BME280;59840;52.122;5.404;2023-05-09T11:37:50;101275.41;;;14.85;100.00
71974;BME280;59840;52.122;5.404;2023-05-09T11:40:19;101270.34;;;14.84;100.00
71974;BME280;59840;52.122;5.404;2023-05-09T11:42:51;101259.19;;;14.82;100.00
71974;BME280;59840;52.122;5.404;2023-05-09T11:45:29;101258.13;;;14.78;100.00
71974;BME280;59840;52.122;5.404;2023-05-09T11:47:56;101261.03;;;14.76;100.00
71974;BME280;59840;52.122;5.404;2023-05-09T11:50:23;101265.28;;;14.77;100.00
71974;BME280;59840;52.122;5.404;2023-05-09T11:52:50;101256.53;;;14.77;100.00
71974;BME280;59840;52.122;5.404;2023-05-09T11:55:18;101252.00;;;14.77;100.00
71974;BME280;59840;52.122;5.404;2023-05-09T11:57:50;101250.94;;;14.78;100.00
71974;BME280;59840;52.122;5.404;2023-05-09T12:00:20;101249.88;;;14.74;100.00
71974;BME280;59840;52.122;5.404;2023-05-09T12:02:48;101255.97;;;14.69;100.00
71974;BME280;59840;52.122;5.404;2023-05-09T12:05:18;101253.81;;;14.66;100.00
71974;BME280;59840;52.122;5.404;2023-05-09T12:07:46;101247.19;;;14.64;100.00
71974;BME280;59840;52.122;5.404;2023-05-09T12:10:14;101244.25;;;14.65;100.00
71974;BME280;59840;52.122;5.404;2023-05-09T12:12:43;101243.19;;;14.66;100.00
71974;BME280;59840;52.122;5.404;2023-05-09T12:15:11;101243.16;;;14.56;100.00
71974;BME280;59840;52.122;5.404;2023-05-09T12:17:40;101241.03;;;14.58;100.00
71974;BME280;59840;52.122;5.404;2023-05-09T12:20:07;101242.09;;;14.57;100.00
71974;BME280;59840;52.122;5.404;2023-05-09T12:22:35;101237.84;;;14.56;100.00
71974;BME280;59840;52.122;5.404;2023-05-09T12:25:07;101235.72;;;14.58;100.00
71974;BME280;59840;52.122;5.404;2023-05-09T12:27:36;101226.72;;;14.59;100.00
71974;BME280;59840;52.122;5.404;2023-05-09T12:30:06;101225.44;;;14.72;100.00
71974;BME280;59840;52.122;5.404;2023-05-09T12:32:36;101223.84;;;14.76;100.00
71974;BME280;59840;52.122;5.404;2023-05-09T12:35:07;101227.84;;;14.79;100.00
71974;BME280;59840;52.122;5.404;2023-05-09T12:37:35;101215.63;;;14.78;100.00
71974;BME280;59840;52.122;5.404;2023-05-09T12:40:09;101215.06;;;14.75;100.00
71974;BME280;59840;52.122;5.404;2023-05-09T12:42:38;101212.16;;;14.72;100.00
71974;BME280;59840;52.122;5.404;2023-05-09T12:45:08;101206.56;;;14.68;100.00
71974;BME280;59840;52.122;5.404;2023-05-09T12:47:36;101208.66;;;14.66;100.00
71974;BME280;59840;52.122;5.404;2023-05-09T12:50:05;101205.47;;;14.64;100.00
71974;BME280;59840;52.122;5.404;2023-05-09T12:52:33;101207.88;;;14.66;100.00
71974;BME280;59840;52.122;5.404;2023-05-09T12:55:07;101186.38;;;14.72;100.00
71974;BME280;59840;52.122;5.404;2023-05-09T12:57:34;101195.44;;;14.82;100.00